createdAt,value
2022-10-23T00:01:28.354Z,8.90
2022-10-23T00:03:59.198Z,8.90
2022-10-23T00:06:28.560Z,8.80
2022-10-23T00:08:56.474Z,8.80
2022-10-23T00:11:28.558Z,8.60
2022-10-23T00:13:59.176Z,8.70
2022-10-23T00:16:27.941Z,8.70
2022-10-23T00:18:56.552Z,8.60
2022-10-23T00:21:24.939Z,8.40
2022-10-23T00:23:52.915Z,8.30
2022-10-23T00:26:20.767Z,8.50
2022-10-23T00:28:51.414Z,8.50
2022-10-23T00:31:20.188Z,8.70
2022-10-23T00:33:48.770Z,8.60
2022-10-23T00:36:18.815Z,8.50
2022-10-23T00:38:47.569Z,8.50
2022-10-23T00:41:24.616Z,8.40
2022-10-23T00:44:04.466Z,8.50
2022-10-23T00:46:32.773Z,8.50
2022-10-23T00:49:02.401Z,8.50
2022-10-23T00:51:38.962Z,8.50
2022-10-23T00:54:25.049Z,8.50
2022-10-23T00:56:57.197Z,8.60
2022-10-23T00:59:25.363Z,8.50
2022-10-23T01:01:53.078Z,8.50
2022-10-23T01:04:21.573Z,8.50
2022-10-23T01:07:27.806Z,8.40
2022-10-23T01:10:03.518Z,8.30
2022-10-23T01:12:59.774Z,8.30
2022-10-23T01:15:46.127Z,8.20
2022-10-23T01:18:39.697Z,8.20
2022-10-23T01:21:28.802Z,8.20
2022-10-23T01:24:06.528Z,8.30
2022-10-23T01:27:00.455Z,8.20
2022-10-23T01:29:45.823Z,8.00
2022-10-23T01:32:30.460Z,7.90
2022-10-23T01:35:13.068Z,7.80
2022-10-23T01:37:49.993Z,7.80
2022-10-23T01:40:22.961Z,7.60
2022-10-23T01:42:55.681Z,7.60
2022-10-23T01:45:40.566Z,7.60
2022-10-23T01:48:12.225Z,7.70
2022-10-23T01:50:42.772Z,7.80
2022-10-23T01:53:10.549Z,7.90
2022-10-23T01:58:21.216Z,8.00
2022-10-23T02:00:52.909Z,8.00
2022-10-23T02:03:21.694Z,8.00
2022-10-23T02:05:49.553Z,7.90
2022-10-23T02:08:17.264Z,7.90
2022-10-23T02:10:58.638Z,7.90
2022-10-23T02:13:34.135Z,7.80
2022-10-23T02:16:12.284Z,7.90
2022-10-23T02:18:57.779Z,7.80
2022-10-23T02:21:39.071Z,8.00
2022-10-23T02:24:11.644Z,8.00
2022-10-23T02:26:55.478Z,8.00
2022-10-23T02:29:30.323Z,7.90
2022-10-23T02:32:00.699Z,7.90
2022-10-23T02:34:28.524Z,8.00
2022-10-23T02:36:56.974Z,8.00
2022-10-23T02:39:27.667Z,7.90
2022-10-23T02:42:05.473Z,7.90
2022-10-23T02:44:38.989Z,8.00
2022-10-23T02:47:18.426Z,8.00
2022-10-23T02:50:01.634Z,7.90
2022-10-23T02:52:42.833Z,7.90
2022-10-23T02:55:34.086Z,8.10
2022-10-23T02:58:20.665Z,8.00
2022-10-23T03:00:55.394Z,7.90
2022-10-23T03:03:30.151Z,7.90
2022-10-23T03:05:59.225Z,7.90
2022-10-23T03:08:27.065Z,7.90
2022-10-23T03:10:54.714Z,7.90
2022-10-23T03:13:24.223Z,7.80
2022-10-23T03:15:53.180Z,7.80
2022-10-23T03:18:20.809Z,7.80
2022-10-23T03:20:51.111Z,7.70
2022-10-23T03:23:22.589Z,7.70
2022-10-23T03:25:50.536Z,7.70
2022-10-23T03:28:31.973Z,7.80
2022-10-23T03:31:02.245Z,7.60
2022-10-23T03:33:31.019Z,7.60
2022-10-23T03:36:06.944Z,7.60
2022-10-23T03:38:36.069Z,7.60
2022-10-23T03:41:04.868Z,7.60
2022-10-23T03:43:32.424Z,7.60
2022-10-23T03:46:01.157Z,7.60
2022-10-23T03:48:28.863Z,7.60
2022-10-23T03:50:59.376Z,7.60
2022-10-23T03:53:26.907Z,7.50
2022-10-23T03:55:54.526Z,7.50
2022-10-23T03:58:22.316Z,7.50
2022-10-23T04:00:49.973Z,7.40
2022-10-23T04:03:17.666Z,7.30
2022-10-23T04:05:45.276Z,7.30
2022-10-23T04:08:16.382Z,7.40
2022-10-23T04:10:50.707Z,7.30
2022-10-23T04:13:21.507Z,7.30
2022-10-23T04:15:50.630Z,7.40
2022-10-23T04:18:18.712Z,7.30
2022-10-23T04:20:49.443Z,7.30
2022-10-23T04:23:18.214Z,7.40
2022-10-23T04:28:16.039Z,7.30
2022-10-23T04:30:43.719Z,7.40
2022-10-23T04:33:13.212Z,7.50
2022-10-23T04:35:43.448Z,7.40
2022-10-23T04:38:12.236Z,7.40
2022-10-23T04:40:40.211Z,7.40
2022-10-23T04:43:07.778Z,7.40
2022-10-23T04:45:38.644Z,7.40
2022-10-23T04:48:06.431Z,7.40
2022-10-23T04:51:06.428Z,7.30
2022-10-23T04:53:56.797Z,7.20
2022-10-23T04:56:44.830Z,7.10
2022-10-23T04:59:23.381Z,7.30
2022-10-23T05:01:54.359Z,7.30
2022-10-23T05:04:24.612Z,7.30
2022-10-23T05:07:12.520Z,7.30
2022-10-23T05:09:49.560Z,7.30
2022-10-23T05:12:25.530Z,7.30
2022-10-23T05:14:54.667Z,7.40
2022-10-23T05:17:36.448Z,7.40
2022-10-23T05:20:09.719Z,7.30
2022-10-23T05:22:41.741Z,7.30
2022-10-23T05:25:13.671Z,7.50
2022-10-23T05:27:46.605Z,7.40
2022-10-23T05:30:16.466Z,7.40
2022-10-23T05:32:44.718Z,7.20
2022-10-23T05:35:17.486Z,7.20
2022-10-23T05:37:51.201Z,7.30
2022-10-23T05:40:22.130Z,7.30
2022-10-23T05:42:53.406Z,7.30
2022-10-23T05:45:28.901Z,7.40
2022-10-23T05:48:22.724Z,7.40
2022-10-23T05:51:22.564Z,7.40
2022-10-23T05:53:58.263Z,7.30
2022-10-23T05:56:41.556Z,7.40
2022-10-23T05:59:20.432Z,7.20
2022-10-23T06:02:23.382Z,7.20
2022-10-23T06:04:57.133Z,7.20
2022-10-23T06:07:45.860Z,7.20
2022-10-23T06:10:14.175Z,7.20
2022-10-23T06:12:45.762Z,7.30
2022-10-23T06:15:16.899Z,7.40
2022-10-23T06:18:05.191Z,7.40
2022-10-23T06:20:37.797Z,7.40
2022-10-23T06:23:11.104Z,7.40
2022-10-23T06:26:08.996Z,7.40
2022-10-23T06:28:51.117Z,7.40
2022-10-23T06:31:26.741Z,7.40
2022-10-23T06:33:56.454Z,7.30
2022-10-23T06:36:24.475Z,7.40
2022-10-23T06:38:56.441Z,7.50
2022-10-23T06:41:32.351Z,7.60
2022-10-23T06:44:00.122Z,7.60
2022-10-23T06:46:42.359Z,7.70
2022-10-23T06:49:18.953Z,7.70
2022-10-23T06:51:49.115Z,7.70
2022-10-23T06:54:21.383Z,7.70
2022-10-23T06:56:56.384Z,7.80
2022-10-23T06:59:33.379Z,8.00
2022-10-23T07:02:01.384Z,8.10
2022-10-23T07:04:31.444Z,8.20
2022-10-23T07:07:00.612Z,8.10
2022-10-23T07:09:36.700Z,8.20
2022-10-23T07:12:20.248Z,8.30
2022-10-23T07:14:53.553Z,8.30
2022-10-23T07:17:22.217Z,8.40
2022-10-23T07:19:50.097Z,8.40
2022-10-23T07:22:17.880Z,8.60
2022-10-23T07:25:04.421Z,8.70
2022-10-23T07:27:39.589Z,8.70
2022-10-23T07:30:10.470Z,8.80
2022-10-23T07:32:51.932Z,8.80
2022-10-23T07:35:36.997Z,8.90
2022-10-23T07:38:10.659Z,8.90
2022-10-23T07:40:42.761Z,8.80
2022-10-23T07:43:11.934Z,8.80
2022-10-23T07:45:39.651Z,8.80
2022-10-23T07:48:16.991Z,8.80
2022-10-23T07:51:08.410Z,9.00
2022-10-23T07:53:43.252Z,9.20
2022-10-23T07:56:31.505Z,9.40
2022-10-23T07:59:34.566Z,9.40
2022-10-23T08:02:13.806Z,9.50
2022-10-23T08:04:42.691Z,9.50
2022-10-23T08:07:34.604Z,9.60
2022-10-23T08:10:02.504Z,9.50
2022-10-23T08:12:31.738Z,9.50
2022-10-23T08:14:59.472Z,9.50
2022-10-23T08:17:34.281Z,9.70
2022-10-23T08:20:17.339Z,9.90
2022-10-23T08:22:46.344Z,9.70
2022-10-23T08:25:24.927Z,9.50
2022-10-23T08:27:54.533Z,9.40
2022-10-23T08:30:22.454Z,9.60
2022-10-23T08:32:50.371Z,9.90
2022-10-23T08:35:18.545Z,10.60
2022-10-23T08:37:48.372Z,11.10
2022-10-23T08:40:18.102Z,11.50
2022-10-23T08:43:10.128Z,11.60
2022-10-23T08:45:53.950Z,11.60
2022-10-23T08:48:51.281Z,11.60
2022-10-23T08:51:54.740Z,11.50
2022-10-23T08:54:47.245Z,11.40
2022-10-23T08:57:17.334Z,11.30
2022-10-23T09:00:06.660Z,11.10
2022-10-23T09:02:42.369Z,10.60
2022-10-23T09:05:16.381Z,10.80
2022-10-23T09:08:02.581Z,10.90
2022-10-23T09:10:33.413Z,10.90
2022-10-23T09:13:40.685Z,10.70
2022-10-23T09:16:20.411Z,10.90
2022-10-23T09:18:50.136Z,11.20
2022-10-23T09:21:17.836Z,11.50
2022-10-23T09:23:50.069Z,11.50
2022-10-23T09:26:18.569Z,11.90
2022-10-23T09:28:49.010Z,12.00
2022-10-23T09:31:18.316Z,12.00
2022-10-23T09:34:01.395Z,12.00
2022-10-23T09:36:29.933Z,11.70
2022-10-23T09:38:59.879Z,11.50
2022-10-23T09:41:30.388Z,12.00
2022-10-23T09:44:16.493Z,12.90
2022-10-23T09:49:29.084Z,12.70
2022-10-23T09:52:11.840Z,12.70
2022-10-23T09:54:53.198Z,12.70
2022-10-23T09:57:26.783Z,12.80
2022-10-23T09:59:57.514Z,12.60
2022-10-23T10:02:29.192Z,12.60
2022-10-23T10:05:30.883Z,13.10
2022-10-23T10:08:24.344Z,13.30
2022-10-23T10:10:57.912Z,13.60
2022-10-23T10:13:36.582Z,13.80
2022-10-23T10:16:24.926Z,13.60
2022-10-23T10:19:22.953Z,14.00
2022-10-23T10:22:32.547Z,13.50
2022-10-23T10:25:06.349Z,13.90
2022-10-23T10:27:43.216Z,14.30
2022-10-23T10:30:14.286Z,14.50
2022-10-23T10:32:57.849Z,15.00
2022-10-23T10:35:53.610Z,15.50
2022-10-23T10:38:30.040Z,15.90
2022-10-23T10:41:21.919Z,15.90
2022-10-23T10:44:04.657Z,15.70
2022-10-23T10:46:58.454Z,15.30
2022-10-23T10:49:33.453Z,15.20
2022-10-23T10:52:34.727Z,15.70
2022-10-23T10:55:24.676Z,15.90
2022-10-23T10:58:39.670Z,16.00
2022-10-23T11:01:36.631Z,15.60
2022-10-23T11:04:34.952Z,15.50
2022-10-23T11:07:09.282Z,15.50
2022-10-23T11:09:46.534Z,15.20
2022-10-23T11:12:22.728Z,15.30
2022-10-23T11:14:55.534Z,15.50
2022-10-23T11:17:39.594Z,16.50
2022-10-23T11:20:29.003Z,17.60
2022-10-23T11:23:26.562Z,18.80
2022-10-23T11:26:21.127Z,19.20
2022-10-23T11:29:20.295Z,18.20
2022-10-23T11:32:04.595Z,19.40
2022-10-23T11:34:43.515Z,19.70
2022-10-23T11:37:17.324Z,19.30
2022-10-23T11:40:07.274Z,19.80
2022-10-23T11:42:48.157Z,20.10
2022-10-23T11:45:47.715Z,20.10
2022-10-23T11:48:15.249Z,20.60
2022-10-23T11:50:46.176Z,20.20
2022-10-23T11:53:30.797Z,19.80
2022-10-23T11:56:13.411Z,19.80
2022-10-23T11:58:43.005Z,18.60
2022-10-23T12:01:20.162Z,17.90
2022-10-23T12:04:13.558Z,16.90
2022-10-23T12:06:56.554Z,16.10
2022-10-23T12:09:52.020Z,15.50
2022-10-23T12:12:43.202Z,15.00
2022-10-23T12:15:16.643Z,14.90
2022-10-23T12:17:45.604Z,14.70
2022-10-23T12:20:39.343Z,15.00
2022-10-23T12:23:25.912Z,15.40
2022-10-23T12:26:17.629Z,17.00
2022-10-23T12:29:22.326Z,18.10
2022-10-23T12:32:04.787Z,18.80
2022-10-23T12:34:35.403Z,19.70
2022-10-23T12:37:25.218Z,19.10
2022-10-23T12:39:56.766Z,19.00
2022-10-23T12:42:27.204Z,19.20
2022-10-23T12:45:02.785Z,19.40
2022-10-23T12:47:40.598Z,18.80
2022-10-23T12:50:30.050Z,18.80
2022-10-23T12:53:03.648Z,19.70
2022-10-23T12:55:46.914Z,20.30
2022-10-23T12:58:35.171Z,20.40
2022-10-23T13:01:07.157Z,20.00
2022-10-23T13:03:37.287Z,20.30
2022-10-23T13:06:05.223Z,19.90
2022-10-23T13:08:38.929Z,19.50
2022-10-23T13:11:24.579Z,19.50
2022-10-23T13:13:53.758Z,19.90
2022-10-23T13:16:23.602Z,19.30
2022-10-23T13:18:51.389Z,19.40
2022-10-23T13:21:24.708Z,18.90
2022-10-23T13:23:52.974Z,18.70
2022-10-23T13:26:34.671Z,18.20
2022-10-23T13:29:07.456Z,18.10
2022-10-23T13:31:39.061Z,18.20
2022-10-23T13:34:16.217Z,18.40
2022-10-23T13:36:57.556Z,18.70
2022-10-23T13:39:29.819Z,18.70
2022-10-23T13:42:12.909Z,18.40
2022-10-23T13:44:41.675Z,18.20
2022-10-23T13:47:14.778Z,17.70
2022-10-23T13:49:42.420Z,18.70
2022-10-23T13:52:13.910Z,18.30
2022-10-23T13:54:43.648Z,17.50
2022-10-23T13:57:14.732Z,17.60
2022-10-23T13:59:42.870Z,17.30
2022-10-23T14:02:20.853Z,16.80
2022-10-23T14:04:49.799Z,16.10
2022-10-23T14:07:17.803Z,15.80
2022-10-23T14:09:45.452Z,15.90
2022-10-23T14:12:13.973Z,15.20
2022-10-23T14:14:41.554Z,14.90
2022-10-23T14:17:09.214Z,14.70
2022-10-23T14:22:09.838Z,14.10
2022-10-23T14:24:37.930Z,13.70
2022-10-23T14:27:05.753Z,13.50
2022-10-23T14:29:33.590Z,13.50
2022-10-23T14:32:01.270Z,13.20
2022-10-23T14:34:28.952Z,12.90
2022-10-23T14:37:08.045Z,12.80
2022-10-23T14:39:36.911Z,13.00
2022-10-23T14:42:04.617Z,13.00
2022-10-23T14:44:32.279Z,13.00
2022-10-23T14:47:00.148Z,12.80
2022-10-23T14:49:27.771Z,12.60
2022-10-23T14:51:55.382Z,12.70
2022-10-23T14:54:22.968Z,12.70
2022-10-23T14:56:50.756Z,12.70
2022-10-23T14:59:18.420Z,12.60
2022-10-23T15:01:48.427Z,12.60
2022-10-23T15:04:16.552Z,12.70
2022-10-23T15:06:46.451Z,12.60
2022-10-23T15:09:15.019Z,12.60
2022-10-23T15:11:42.805Z,12.60
2022-10-23T15:14:10.681Z,12.50
2022-10-23T15:16:41.764Z,12.50
2022-10-23T15:19:15.230Z,12.50
2022-10-23T15:21:47.144Z,12.50
2022-10-23T15:24:15.922Z,12.50
2022-10-23T15:26:44.166Z,12.50
2022-10-23T15:29:12.327Z,12.40
2022-10-23T15:31:46.043Z,12.40
2022-10-23T15:34:28.170Z,12.30
2022-10-23T15:36:56.971Z,12.10
2022-10-23T15:39:27.740Z,12.00
2022-10-23T15:41:57.171Z,12.00
2022-10-23T15:44:27.146Z,11.90
2022-10-23T15:46:57.093Z,11.80
2022-10-23T15:49:26.691Z,11.80
2022-10-23T15:51:54.288Z,11.70
2022-10-23T15:54:22.267Z,11.50
2022-10-23T15:56:52.150Z,11.50
2022-10-23T15:59:21.750Z,11.40
2022-10-23T16:01:49.861Z,11.20
2022-10-23T16:04:18.047Z,11.20
2022-10-23T16:06:46.183Z,11.20
2022-10-23T16:09:14.467Z,11.10
2022-10-23T16:11:44.233Z,10.90
2022-10-23T16:14:17.413Z,10.90
2022-10-23T16:16:45.345Z,10.90
2022-10-23T16:19:13.287Z,10.80
2022-10-23T16:21:41.995Z,10.80
2022-10-23T16:24:10.675Z,10.70
2022-10-23T16:26:39.090Z,10.60
2022-10-23T16:29:08.363Z,10.60
2022-10-23T16:31:36.544Z,10.50
2022-10-23T16:34:05.524Z,10.40
2022-10-23T16:36:35.383Z,10.40
2022-10-23T16:39:18.900Z,10.30
2022-10-23T16:42:05.399Z,10.20
2022-10-23T16:44:44.903Z,10.10
2022-10-23T16:47:12.509Z,10.10
2022-10-23T16:49:41.295Z,10.10
2022-10-23T16:52:09.904Z,9.90
2022-10-23T16:54:37.652Z,9.80
2022-10-23T16:57:05.326Z,9.80
2022-10-23T16:59:32.907Z,9.80
2022-10-23T17:02:00.573Z,9.90
2022-10-23T17:04:28.181Z,9.90
2022-10-23T17:06:55.833Z,9.90
2022-10-23T17:09:23.733Z,9.80
2022-10-23T17:11:53.123Z,9.70
2022-10-23T17:14:21.396Z,9.80
2022-10-23T17:16:51.423Z,9.80
2022-10-23T17:22:11.258Z,9.70
2022-10-23T17:24:45.147Z,9.70
2022-10-23T17:27:15.136Z,9.70
2022-10-23T17:29:42.751Z,9.70
2022-10-23T17:32:10.494Z,9.70
2022-10-23T17:34:38.322Z,9.60
2022-10-23T17:37:05.929Z,9.60
2022-10-23T17:39:33.569Z,9.70
2022-10-23T17:42:01.169Z,9.70
2022-10-23T17:44:29.288Z,9.70
2022-10-23T17:46:57.107Z,9.60
2022-10-23T17:49:25.628Z,9.60
2022-10-23T17:51:57.893Z,9.40
2022-10-23T17:54:27.413Z,9.50
2022-10-23T17:56:55.690Z,9.50
2022-10-23T17:59:24.382Z,9.50
2022-10-23T18:01:52.154Z,9.50
2022-10-23T18:04:20.936Z,9.50
2022-10-23T18:06:51.501Z,9.60
2022-10-23T18:09:20.644Z,9.50
2022-10-23T18:11:48.733Z,9.50
2022-10-23T18:14:18.922Z,9.40
2022-10-23T18:16:46.932Z,9.50
2022-10-23T18:19:17.244Z,9.60
2022-10-23T18:21:45.222Z,9.50
2022-10-23T18:24:12.834Z,9.50
2022-10-23T18:26:48.538Z,9.40
2022-10-23T18:29:17.587Z,9.40
2022-10-23T18:31:48.793Z,9.50
2022-10-23T18:34:25.174Z,9.50
2022-10-23T18:36:57.470Z,9.40
2022-10-23T18:39:25.703Z,9.40
2022-10-23T18:41:57.067Z,9.50
2022-10-23T18:44:27.375Z,9.50
2022-10-23T18:46:57.222Z,9.40
2022-10-23T18:49:24.961Z,9.40
2022-10-23T18:51:52.502Z,9.30
2022-10-23T18:54:21.501Z,9.30
2022-10-23T18:56:49.633Z,9.40
2022-10-23T18:59:19.561Z,9.40
2022-10-23T19:01:49.228Z,9.40
2022-10-23T19:04:18.543Z,9.40
2022-10-23T19:06:47.340Z,9.30
2022-10-23T19:09:15.543Z,9.20
2022-10-23T19:11:44.124Z,9.20
2022-10-23T19:14:11.936Z,9.30
2022-10-23T19:17:05.114Z,9.20
2022-10-23T19:19:55.578Z,9.20
2022-10-23T19:22:23.927Z,9.30
2022-10-23T19:24:55.429Z,9.40
2022-10-23T19:27:24.463Z,9.50
2022-10-23T19:29:53.528Z,9.50
2022-10-23T19:32:22.506Z,9.50
2022-10-23T19:34:50.113Z,9.40
2022-10-23T19:37:20.241Z,9.50
2022-10-23T19:39:55.358Z,9.60
2022-10-23T19:42:25.667Z,9.60
2022-10-23T19:44:54.296Z,9.40
2022-10-23T19:47:27.710Z,9.40
2022-10-23T19:49:55.313Z,9.40
2022-10-23T19:52:24.958Z,9.50
2022-10-23T19:54:52.609Z,9.50
2022-10-23T19:57:22.533Z,9.50
2022-10-23T19:59:52.331Z,9.50
2022-10-23T20:02:25.684Z,9.50
2022-10-23T20:04:54.007Z,9.50
2022-10-23T20:07:21.930Z,9.50
2022-10-23T20:09:49.598Z,9.70
2022-10-23T20:12:17.313Z,9.60
2022-10-23T20:14:45.127Z,9.60
2022-10-23T20:17:12.681Z,9.60
2022-10-23T20:19:40.302Z,9.60
2022-10-23T20:22:08.748Z,9.60
2022-10-23T20:24:36.798Z,9.60
2022-10-23T20:27:04.443Z,9.70
2022-10-23T20:29:32.412Z,9.80
2022-10-23T20:32:02.985Z,9.90
2022-10-23T20:34:30.661Z,9.90
2022-10-23T20:36:58.296Z,9.80
2022-10-23T20:39:26.776Z,9.80
2022-10-23T20:41:55.439Z,9.80
2022-10-23T20:44:24.005Z,9.90
2022-10-23T20:46:55.192Z,9.80
2022-10-23T20:49:23.467Z,9.90
2022-10-23T20:51:56.062Z,10.00
2022-10-23T20:54:25.971Z,10.00
2022-10-23T20:56:53.847Z,10.00
2022-10-23T20:59:21.562Z,9.90
2022-10-23T21:01:53.178Z,9.90
2022-10-23T21:04:25.227Z,9.90
2022-10-23T21:07:11.838Z,10.00
2022-10-23T21:09:55.707Z,10.00
2022-10-23T21:12:28.029Z,9.80
2022-10-23T21:14:55.696Z,9.70
2022-10-23T21:17:23.265Z,9.80
2022-10-23T21:19:53.080Z,9.80
2022-10-23T21:22:20.649Z,9.80
2022-10-23T21:24:49.681Z,9.90
2022-10-23T21:27:17.317Z,9.90
2022-10-23T21:29:44.992Z,9.90
2022-10-23T21:32:12.579Z,9.90
2022-10-23T21:34:40.174Z,9.80
2022-10-23T21:37:13.822Z,9.90
2022-10-23T21:39:43.223Z,9.90
2022-10-23T21:42:14.075Z,9.90
2022-10-23T21:44:41.793Z,10.00
2022-10-23T21:47:09.657Z,10.00
2022-10-23T21:49:37.357Z,9.90
2022-10-23T21:52:05.384Z,9.90
2022-10-23T21:54:33.399Z,10.00
2022-10-23T21:57:03.175Z,10.00
2022-10-23T21:59:33.156Z,10.10
2022-10-23T22:02:02.654Z,10.10
2022-10-23T22:04:30.305Z,10.10
2022-10-23T22:06:57.943Z,10.00
2022-10-23T22:09:25.509Z,9.90
2022-10-23T22:11:53.743Z,9.80
2022-10-23T22:14:21.997Z,9.70
2022-10-23T22:16:49.799Z,9.70
2022-10-23T22:19:18.265Z,9.70
2022-10-23T22:21:47.680Z,9.60
2022-10-23T22:24:17.631Z,9.60
2022-10-23T22:26:48.453Z,9.70
2022-10-23T22:29:22.396Z,9.70
2022-10-23T22:31:50.557Z,9.60
2022-10-23T22:34:48.289Z,9.50
2022-10-23T22:37:15.950Z,9.50
2022-10-23T22:39:43.791Z,9.50
2022-10-23T22:42:11.500Z,9.60
2022-10-23T22:44:39.061Z,9.50
2022-10-23T22:47:06.671Z,9.50
2022-10-23T22:49:34.223Z,9.50
2022-10-23T22:52:01.830Z,9.60
2022-10-23T22:54:31.348Z,9.60
2022-10-23T22:56:59.075Z,9.70
2022-10-23T23:00:00.088Z,9.80
2022-10-23T23:10:44.328Z,9.70
2022-10-23T23:13:36.146Z,9.80
2022-10-23T23:16:04.500Z,9.80
2022-10-23T23:18:32.589Z,9.90
2022-10-23T23:21:06.456Z,10.10
2022-10-23T23:23:35.054Z,10.10
2022-10-23T23:26:05.930Z,10.10
2022-10-23T23:28:33.691Z,10.10
2022-10-23T23:31:13.641Z,10.10
2022-10-23T23:33:41.258Z,10.00
2022-10-23T23:36:11.055Z,10.00
2022-10-23T23:38:39.481Z,9.90
2022-10-23T23:41:11.123Z,9.90
2022-10-23T23:43:38.709Z,10.00
2022-10-23T23:46:06.417Z,9.90
2022-10-23T23:48:34.211Z,9.90
2022-10-23T23:51:01.911Z,10.00
2022-10-23T23:53:29.943Z,10.10
2022-10-23T23:55:58.261Z,10.00
2022-10-23T23:58:25.806Z,10.00
